Weather History for Peru, IN

Change the Weather History Date:

Thursday, October 31, 2013

  Actual Average Record
Temperature  
Mean Temperature 58 °F -  
Max Temperature 64 °F 55 °F 75 °F (2003)
Min Temperature 51 °F 38 °F 28 °F (1996)
Degree Days  
Heating Degree Days 8    
Growing Degree Days 8 (Base 50)    
Moisture  
Dew Point 61 °F    
Average Humidity 100    
Maximum Humidity 100    
Minimum Humidity 99    
Precipitation  
Precipitation 1.43 in - - ()
Sea Level Pressure  
Sea Level Pressure 29.57 in    
Wind  
Wind Speed 17 mph (SSW)    
Max Wind Speed 25 mph    
Max Gust Speed 33 mph    
Visibility 8 miles    
Events Rain    
Averages and records for this station are not official NWS values.
T = Trace of Precipitation, MM = Missing Value Source: NWS Daily Summary

Daily Weather History Graph

Daily Weather History Graph

Search for Another Location

Airport:

Trip Planner

Search our weather history database for the weather conditions in past years. The results will help you decide how hot, cold, wet, or windy it might be!

Date:

Astronomy

Oct. 31, 2013 Rise Set
Actual Time 8:13 AM EDT 6:41 PM EDT
Civil Twilight 7:45 AM EDT 7:10 PM EDT
Nautical Twilight 7:13 AM EDT 7:42 PM EDT
Astronomical Twilight 6:41 AM EDT 8:14 PM EDT
Moon 5:01 AM EDT (10/31) 5:00 PM EDT (10/31)
Length of Visible Light 11h 24m
Length of Day
10h 27m
Waning Crescent, 10% of the Moon is Illuminated
Oct 31
Waning Crescent
Nov 3
New
Nov 10
First Quarter
Nov 17
Full
Nov 25
Last Quarter

Hourly Weather History & Observations

Time (EDT) Temp. Dew Point Humidity Pressure Visibility Wind Dir Wind Speed Gust Speed Precip Events Conditions
12:23 AM 64.4 °F 64.4 °F 100% 29.90 in 10.0 mi South 13.8 mph - N/A   Light Drizzle
12:36 AM 64.4 °F 64.4 °F 100% 29.89 in 10.0 mi South 15.0 mph - N/A   Scattered Clouds
12:45 AM 64.4 °F 64.4 °F 100% 29.89 in 10.0 mi SSW 16.1 mph - N/A   Light Drizzle
12:58 AM 63.9 °F 63.7 °F 99% 29.90 in 10.0 mi SSW 20.7 mph 29.9 mph 0.01 in Rain Light Rain
1:13 AM 64.4 °F 64.4 °F 100% 29.88 in 10.0 mi SSW 18.4 mph 28.8 mph N/A Rain Light Rain
1:23 AM 64.4 °F 64.4 °F 100% 29.88 in 10.0 mi SSW 18.4 mph 25.3 mph N/A   Mostly Cloudy
1:43 AM 64.4 °F 64.4 °F 100% 29.88 in 10.0 mi SSW 16.1 mph 26.5 mph N/A   Mostly Cloudy
1:58 AM 63.7 °F 63.7 °F 100% 29.88 in 10.0 mi SSW 16.1 mph 23.0 mph 0.00 in   Mostly Cloudy
2:03 AM 64.4 °F 64.4 °F 100% 29.87 in 10.0 mi SSW 19.6 mph 23.0 mph N/A   Light Drizzle
2:08 AM 64.4 °F 64.4 °F 100% 29.87 in 10.0 mi SSW 17.3 mph - N/A Rain Light Rain
2:18 AM 64.4 °F 64.4 °F 100% 29.87 in 10.0 mi SSW 16.1 mph - N/A Rain Light Rain
2:26 AM 64.4 °F 64.4 °F 100% 29.87 in 10.0 mi SSW 17.3 mph - N/A   Scattered Clouds
2:45 AM 64.4 °F 64.4 °F 100% 29.86 in 10.0 mi SSW 16.1 mph - N/A Rain Light Rain
2:58 AM 63.7 °F 63.7 °F 100% 29.87 in 10.0 mi SSW 15.0 mph - 0.00 in Rain Light Rain
3:18 AM 62.6 °F 62.6 °F 100% 29.86 in 9.0 mi SSW 15.0 mph - N/A   Light Drizzle
3:23 AM 62.6 °F 62.6 °F 100% 29.86 in 8.0 mi SSW 12.7 mph - N/A Rain Light Rain
3:33 AM 62.6 °F 62.6 °F 100% 29.85 in 7.0 mi SSW 17.3 mph - N/A Rain Light Rain
3:43 AM 62.6 °F 62.6 °F 100% 29.84 in 9.0 mi SSW 13.8 mph - N/A Rain Light Rain
3:48 AM 62.6 °F 62.6 °F 100% 29.84 in 10.0 mi SSW 13.8 mph - N/A Rain Light Rain
3:58 AM 63.1 °F 63.1 °F 100% 29.85 in 10.0 mi SSW 12.7 mph - 0.06 in Rain Light Rain
4:18 AM 62.6 °F 62.6 °F 100% 29.82 in 10.0 mi SSW 10.4 mph - N/A   Light Drizzle
4:58 AM 62.2 °F 62.2 °F 100% 29.81 in 10.0 mi South 10.4 mph - 0.01 in Rain Light Rain
5:03 AM 62.6 °F 62.6 °F 100% 29.80 in 9.0 mi South 10.4 mph - N/A Rain Light Rain
5:08 AM 62.6 °F 62.6 °F 100% 29.79 in 9.0 mi South 10.4 mph - N/A Rain Light Rain
5:18 AM 62.6 °F 62.6 °F 100% 29.79 in 9.0 mi South 11.5 mph - N/A Rain Light Rain
5:38 AM 62.6 °F 62.6 °F 100% 29.79 in 8.0 mi South 10.4 mph - N/A Rain Light Rain
5:58 AM 62.2 °F 62.2 °F 100% 29.78 in 7.0 mi SSW 13.8 mph 23.0 mph 0.06 in Rain Light Rain
6:08 AM 62.6 °F 62.6 °F 100% 29.77 in 6.0 mi South 15.0 mph - N/A Rain Light Rain
6:12 AM 62.6 °F 62.6 °F 100% 29.77 in 6.0 mi South 16.1 mph - N/A Rain Rain
6:17 AM 62.6 °F 62.6 °F 100% 29.77 in 5.0 mi South 18.4 mph - N/A Rain Light Rain
6:27 AM 62.6 °F 62.6 °F 100% 29.77 in 7.0 mi South 15.0 mph - N/A Rain Light Rain
6:32 AM 62.6 °F 62.6 °F 100% 29.77 in 8.0 mi SSW 15.0 mph - N/A Rain Light Rain
6:37 AM 62.6 °F 62.6 °F 100% 29.77 in 10.0 mi SSW 16.1 mph - N/A Rain Light Rain
6:42 AM 62.6 °F 62.6 °F 100% 29.76 in 8.0 mi SSW 17.3 mph 24.2 mph N/A Rain Light Rain
6:47 AM 60.8 °F 60.8 °F 100% 29.76 in 7.0 mi SSW 18.4 mph 24.2 mph N/A Rain Light Rain
6:58 AM 61.5 °F 61.5 °F 100% 29.76 in 9.0 mi SSW 20.7 mph 24.2 mph 0.11 in Rain Light Rain
7:15 AM 60.8 °F 60.8 °F 100% 29.75 in 6.0 mi SSW 20.7 mph 29.9 mph N/A   Overcast
7:16 AM 60.8 °F 60.8 °F 100% 29.75 in 6.0 mi SSW 20.7 mph 29.9 mph N/A Rain Light Rain
7:36 AM 60.8 °F 60.8 °F 100% 29.74 in 5.0 mi SSW 18.4 mph 27.6 mph N/A Rain Light Rain
7:41 AM 60.8 °F 60.8 °F 100% 29.74 in 5.0 mi SSW 17.3 mph 23.0 mph N/A Rain Light Rain
7:44 AM 59.0 °F 59.0 °F 100% 29.74 in 4.0 mi SSW 18.4 mph 25.3 mph N/A   Overcast
7:51 AM 59.0 °F 59.0 °F 100% 29.74 in 4.0 mi SSW 21.9 mph 27.6 mph N/A Rain Rain
7:56 AM 59.0 °F 59.0 °F 100% 29.73 in 5.0 mi SSW 20.7 mph 27.6 mph N/A Rain Light Rain
7:58 AM 59.9 °F 59.9 °F 100% 29.74 in 5.0 mi SSW 21.9 mph 27.6 mph 0.09 in Rain Light Rain
8:03 AM 59.0 °F 59.0 °F 100% 29.73 in 6.0 mi SSW 23.0 mph 29.9 mph N/A Rain Light Rain
8:58 AM 58.6 °F 58.6 °F 100% 29.71 in 6.0 mi South 17.3 mph 23.0 mph 0.10 in Rain Light Rain
9:58 AM 59.4 °F 59.4 °F 100% 29.70 in 8.0 mi South 25.3 mph 32.2 mph 0.09 in Rain Light Rain
10:08 AM 59.0 °F 59.0 °F 100% 29.68 in 4.0 mi SSW 24.2 mph 33.4 mph N/A Rain Light Rain
10:34 AM 59.0 °F 59.0 °F 100% 29.67 in 9.0 mi SSW 24.2 mph 31.1 mph N/A Rain Light Rain
10:58 AM 59.0 °F 59.0 °F 100% 29.68 in 3.0 mi SSW 21.9 mph 29.9 mph 0.11 in Rain Light Rain
11:03 AM 59.0 °F 59.0 °F 100% 29.67 in 5.0 mi SSW 20.7 mph 28.8 mph N/A Rain Light Rain
11:33 AM 59.0 °F 59.0 °F 100% 29.66 in 4.0 mi SSW 24.2 mph 33.4 mph N/A Rain Light Rain
11:38 AM 59.0 °F 59.0 °F 100% 29.66 in 5.0 mi SSW 20.7 mph 29.9 mph N/A Rain Light Rain
11:58 AM 59.4 °F 59.4 °F 100% 29.65 in 9.0 mi SSW 24.2 mph 28.8 mph 0.09 in   Overcast
11:59 AM 59.0 °F 59.0 °F 100% 29.65 in 9.0 mi SSW 23.0 mph 29.9 mph N/A Rain Light Rain
12:58 PM 58.8 °F 58.8 °F 100% 29.60 in 8.0 mi South 20.7 mph 29.9 mph 0.07 in Rain Light Rain
1:42 PM 59.0 °F 59.0 °F 100% 29.55 in 10.0 mi South 20.7 mph 25.3 mph N/A Rain Light Rain
1:58 PM 58.8 °F 58.8 °F 100% 29.53 in 10.0 mi South 16.1 mph - 0.08 in Rain Light Rain
2:31 PM 59.0 °F 59.0 °F 100% 29.50 in 10.0 mi South 16.1 mph 23.0 mph N/A Rain Light Rain
2:34 PM 59.0 °F 59.0 °F 100% 29.50 in 8.0 mi South 18.4 mph - N/A Rain Light Rain
2:39 PM 59.0 °F 59.0 °F 100% 29.49 in 5.0 mi South 21.9 mph 26.5 mph N/A Rain Light Rain
2:44 PM 59.0 °F 59.0 °F 100% 29.49 in 3.0 mi South 19.6 mph 29.9 mph N/A Rain Light Rain
2:49 PM 59.0 °F 59.0 °F 100% 29.48 in 4.0 mi South 18.4 mph 29.9 mph N/A Rain Light Rain
2:58 PM 58.8 °F 58.8 °F 100% 29.47 in 5.0 mi South 15.0 mph - 0.06 in Rain Light Rain
3:03 PM 59.0 °F 59.0 °F 100% 29.47 in 6.0 mi South 13.8 mph - N/A Rain Light Rain
3:08 PM 59.0 °F 59.0 °F 100% 29.46 in 8.0 mi South 15.0 mph - N/A Rain Light Rain
3:13 PM 59.0 °F 59.0 °F 100% 29.45 in 9.0 mi South 15.0 mph - N/A Rain Light Rain
3:19 PM 59.0 °F 59.0 °F 100% 29.45 in 9.0 mi South 16.1 mph 21.9 mph N/A Rain Light Rain
3:34 PM 59.0 °F 59.0 °F 100% 29.44 in 8.0 mi South 15.0 mph 21.9 mph N/A Rain Light Rain
3:40 PM 59.0 °F 59.0 °F 100% 29.43 in 6.0 mi South 16.1 mph - N/A   Light Drizzle
3:45 PM 59.0 °F 59.0 °F 100% 29.43 in 7.0 mi South 13.8 mph - N/A   Light Drizzle
3:58 PM 59.0 °F 59.0 °F 100% 29.42 in 7.0 mi South 15.0 mph 21.9 mph 0.04 in   Light Drizzle
4:11 PM 59.0 °F 59.0 °F 100% 29.41 in 10.0 mi South 16.1 mph 23.0 mph N/A   Overcast
4:16 PM 59.0 °F 59.0 °F 100% 29.41 in 10.0 mi South 18.4 mph - N/A   Overcast
4:41 PM 59.0 °F 59.0 °F 100% 29.39 in 10.0 mi South 18.4 mph 25.3 mph N/A   Overcast
4:46 PM 59.0 °F 59.0 °F 100% 29.39 in 10.0 mi South 21.9 mph - N/A   Overcast
4:51 PM 60.8 °F 60.8 °F 100% 29.39 in 10.0 mi South 18.4 mph - N/A   Overcast
4:58 PM 60.1 °F 60.1 °F 100% 29.39 in 10.0 mi South 19.6 mph 25.3 mph 0.00 in   Overcast
5:36 PM 60.8 °F 60.8 °F 100% 29.36 in 10.0 mi SSW 19.6 mph 26.5 mph N/A Rain Light Rain
5:55 PM 62.6 °F 62.6 °F 100% 29.36 in 10.0 mi SSW 13.8 mph - N/A   Overcast
5:58 PM 61.9 °F 61.9 °F 100% 29.35 in 10.0 mi SSW 18.4 mph 25.3 mph 0.01 in   Overcast
5:59 PM 62.6 °F 62.6 °F 100% 29.35 in 10.0 mi SSW 20.7 mph 26.5 mph N/A Rain Light Rain
6:09 PM 62.6 °F 62.6 °F 100% 29.34 in 10.0 mi South 20.7 mph 28.8 mph N/A Rain Light Rain
6:14 PM 62.6 °F 62.6 °F 100% 29.34 in 10.0 mi SSW 18.4 mph 28.8 mph N/A Rain Light Rain
6:31 PM 62.6 °F 62.6 °F 100% 29.33 in 10.0 mi SSW 15.0 mph - N/A   Light Drizzle
6:36 PM 62.6 °F 62.6 °F 100% 29.33 in 10.0 mi SSW 17.3 mph - N/A   Overcast
6:46 PM 62.6 °F 62.6 °F 100% 29.33 in 10.0 mi SSW 12.7 mph - N/A   Overcast
6:51 PM 62.6 °F 62.6 °F 100% 29.32 in 10.0 mi SSW 15.0 mph - N/A   Light Drizzle
6:58 PM 62.2 °F 62.2 °F 100% 29.32 in 10.0 mi SSW 11.5 mph - 0.01 in   Light Drizzle
7:13 PM 62.6 °F 62.6 °F 100% 29.32 in 10.0 mi SSW 16.1 mph 20.7 mph N/A Rain Light Rain
7:23 PM 62.6 °F 62.6 °F 100% 29.32 in 10.0 mi SSW 16.1 mph 21.9 mph N/A Rain Light Rain
7:38 PM 62.6 °F 62.6 °F 100% 29.32 in 8.0 mi SSW 15.0 mph 23.0 mph N/A Rain Light Rain
7:49 PM 62.6 °F 62.6 °F 100% 29.31 in 10.0 mi SSW 15.0 mph - N/A Rain Light Rain
7:58 PM 61.7 °F 61.7 °F 100% 29.32 in 10.0 mi SSW 15.0 mph - 0.06 in Rain Light Rain
8:03 PM 60.8 °F 60.8 °F 100% 29.31 in 10.0 mi SSW 13.8 mph - N/A Rain Light Rain
8:13 PM 60.8 °F 60.8 °F 100% 29.30 in 10.0 mi SSW 13.8 mph - N/A Rain Light Rain
8:28 PM 60.8 °F 60.8 °F 100% 29.30 in 10.0 mi SSW 15.0 mph - N/A Rain Light Rain
8:48 PM 60.8 °F 60.8 °F 100% 29.30 in 10.0 mi SSW 16.1 mph - N/A   Overcast
8:50 PM 60.8 °F 60.8 °F 100% 29.30 in 10.0 mi SSW 15.0 mph - N/A Rain Light Rain
8:58 PM 61.0 °F 61.0 °F 100% 29.29 in 9.0 mi SSW 15.0 mph - 0.06 in Rain Rain
9:08 PM 60.8 °F 60.8 °F 100% 29.28 in 9.0 mi SW 16.1 mph - N/A Rain Light Rain
9:13 PM 60.8 °F 60.8 °F 100% 29.28 in 10.0 mi SW 15.0 mph - N/A Rain Light Rain
9:21 PM 60.8 °F 60.8 °F 100% 29.28 in 6.0 mi SW 16.1 mph - N/A Rain Light Rain
9:26 PM 60.8 °F 60.8 °F 100% 29.28 in 3.0 mi West 21.9 mph 31.1 mph N/A Rain Heavy Rain
9:27 PM 60.8 °F 60.8 °F 100% 29.28 in 3.0 mi West 19.6 mph 31.1 mph N/A Rain Heavy Rain
9:42 PM 59.0 °F 59.0 °F 100% 29.31 in 6.0 mi West 21.9 mph 31.1 mph N/A Rain Heavy Rain
9:54 PM 57.2 °F 57.2 °F 100% 29.32 in 5.0 mi West 19.6 mph 25.3 mph N/A Rain Heavy Rain
9:58 PM 56.5 °F 56.5 °F 100% 29.34 in 6.0 mi West 20.7 mph 27.6 mph 0.25 in Rain Rain
10:08 PM 55.4 °F 55.4 °F 100% 29.34 in 10.0 mi West 19.6 mph - N/A Rain Light Rain
10:21 PM 55.4 °F 55.4 °F 100% 29.32 in 7.0 mi WNW 17.3 mph - N/A Rain Heavy Rain
10:26 PM 55.4 °F 55.4 °F 100% 29.32 in 7.0 mi WNW 20.7 mph - N/A Rain Rain
10:58 PM 53.8 °F 53.8 °F 100% 29.33 in 10.0 mi West 17.3 mph - 0.06 in   Light Drizzle
11:03 PM 53.6 °F 53.6 °F 100% 29.33 in 10.0 mi West 17.3 mph - N/A   Light Drizzle
11:05 PM 53.6 °F 53.6 °F 100% 29.34 in 10.0 mi West 19.6 mph - N/A   Overcast
11:15 PM 53.6 °F 53.6 °F 100% 29.34 in 10.0 mi WNW 17.3 mph - N/A   Light Drizzle
11:40 PM 51.8 °F 51.8 °F 100% 29.37 in 10.0 mi West 16.1 mph - N/A Rain Light Rain
11:58 PM 52.0 °F 52.0 °F 100% 29.40 in 10.0 mi West 21.9 mph 27.6 mph 0.00 in Rain Light Rain